Hub


Voltar

 INFORMAÇÕES METEOROLÓGICAS

METAR FOR GCLA


ADDS - METARS form results

(2319 UTC 17 February 2019)
Data provider http://aviationweather.gov/metar/data/
 
METAR text: GCLA 172300Z AUTO 31001KT 9999 NCD 17/11 Q1023
Conditions at: GCLA (LA PALMA AIRPORT, ES) observed 2300 UTC 17 February 2019
Temperature: 17.0°C (63°F)
Dewpoint: 11.0°C (52°F) [RH = 68%]
Pressure (altimeter): 30.21 inches Hg (1023.0 mb)
Winds: from the NW (310 degrees) at 1 MPH (1 knots; 0.5 m/s)
Visibility: 6 or more miles (10+ km)
Ceiling: at least 12,000 feet AGL
Clouds: sky clear below 12,000 feet AGL
Weather: no significant weather observed at this time

METAR text: GCLA 172230Z AUTO 30006KT 270V340 9999 NCD 17/11 Q1023
Conditions at: GCLA (LA PALMA AIRPORT, ES) observed 2230 UTC 17 February 2019
Temperature: 17.0°C (63°F)
Dewpoint: 11.0°C (52°F) [RH = 68%]
Pressure (altimeter): 30.21 inches Hg (1023.0 mb)
Winds: from the WNW (300 degrees) at 7 MPH (6 knots; 3.1 m/s)
Visibility: 6 or more miles (10+ km)
Ceiling: at least 12,000 feet AGL
Clouds: sky clear below 12,000 feet AGL
Weather: no significant weather observed at this time

Forecast for: GCLA (LA PALMA AIRPORT, ES)
Text: TAF GCLA 172000Z 1721/1821 32005KT 9999 FEW025 TX20/1814Z TN15/1806Z
Forecast period: 2100 UTC 17 February 2019 to 0400 UTC 18 February 2019
Forecast type: FROM: standard forecast or significant change
Winds: from the NW (320 degrees) at 6 MPH (5 knots; 2.6 m/s)
Visibility: 6 or more miles 10+ km)
Ceiling: at least 12,000 feet AGL
Clouds: few clouds at 2500 feet AGL
Weather: no significant weather forecast for this period
Text: BECMG 1804/1806 02014KT
Forecast period: 0400 to 2100 UTC 18 February 2019
Forecast type: BECOMING: Conditions expected to become as follows by 0600 UTC 18 February 2019
Winds: from the NNE (20 degrees) at 16 MPH (14 knots; 7.2 m/s)
Visibility: 6 or more miles 10+ km)
Ceiling: at least 12,000 feet AGL
Clouds: few clouds at 2500 feet AGL
Weather: no significant weather forecast for this period
Text: PROB40
Forecast period: 0500 to 1200 UTC 18 February 2019
Forecast type: TEMPORARY: The following changes expected for less than half the time period
Winds: from the NNE (20 degrees) at 17 MPH (15 knots; 7.7 m/s)
gusting to 29 MPH (25 knots; 12.9 m/s)
Visibility: missing
Ceiling: unknown
Clouds: missing
Weather: RA  (moderate rain)


 MAPA DO AEROPORTO


 INFORMAÇÕES DA PISTA

Pista 01 Tamanho da pista 7218 ft Largura da pista 148 ft
Elevação da pista 103 ft Ranhura da pista 0 ft Proa da pista 359
Pista 19 Tamanho da pista 7218 ft Largura da pista 148 ft
Elevação da pista 65 ft Ranhura da pista 0 ft Proa da pista 179

 FREQUÊNCIAS DO AEROPORTO

Tipo APP Nome CANARIAS A Frequência 126.1 MHZ
Tipo ATIS Nome INFO Frequência 118.6 MHZ
Tipo GND Nome GND Frequência 121.8 MHZ
Tipo TWR Nome TWR Frequência 118.9 MHZ

 AUXÍLIOS DE NAVEGAÇÃO PRÓXIMOS AO AEROPORTO

Tipo DME Nome La Palma Frequência 112400 KHZ
Tipo NDB Nome La Palma Frequência 389 KHZ